createdAt,value
2018-09-21T00:02:24.916Z,19.07
2018-09-21T00:04:53.223Z,17.23
2018-09-21T00:07:21.489Z,20.80
2018-09-21T00:09:49.773Z,18.43
2018-09-21T00:12:18.099Z,17.17
2018-09-21T00:14:48.476Z,17.47
2018-09-21T00:17:16.737Z,22.10
2018-09-21T00:19:44.997Z,20.50
2018-09-21T00:22:13.236Z,22.60
2018-09-21T00:24:43.720Z,26.63
2018-09-21T00:27:12.610Z,18.20
2018-09-21T00:29:41.896Z,22.27
2018-09-21T00:32:10.310Z,22.07
2018-09-21T00:34:38.592Z,21.30
2018-09-21T00:37:06.832Z,18.13
2018-09-21T00:39:35.136Z,19.63
2018-09-21T00:42:03.419Z,18.30
2018-09-21T00:44:31.640Z,19.00
2018-09-21T00:46:59.920Z,18.87
2018-09-21T00:49:28.207Z,18.87
2018-09-21T00:51:56.505Z,18.93
2018-09-21T00:54:25.811Z,20.00
2018-09-21T00:56:55.012Z,17.73
2018-09-21T00:59:23.258Z,17.20
2018-09-21T01:01:51.708Z,17.53
2018-09-21T01:04:22.127Z,19.40
2018-09-21T01:06:50.449Z,18.87
2018-09-21T01:09:18.675Z,22.63
2018-09-21T01:11:46.919Z,19.70
2018-09-21T01:14:15.175Z,20.40
2018-09-21T01:16:43.605Z,20.73
2018-09-21T01:19:11.838Z,21.00
2018-09-21T01:21:40.145Z,19.33
2018-09-21T01:24:08.403Z,21.10
2018-09-21T01:26:36.646Z,22.07
2018-09-21T01:29:05.029Z,20.40
2018-09-21T01:31:33.363Z,21.50
2018-09-21T01:34:01.639Z,20.30
2018-09-21T01:36:29.950Z,24.17
2018-09-21T01:38:58.277Z,21.00
2018-09-21T01:41:26.618Z,19.77
2018-09-21T01:43:54.879Z,19.83
2018-09-21T01:46:23.115Z,21.53
2018-09-21T01:48:53.686Z,20.27
2018-09-21T01:51:22.001Z,18.93
2018-09-21T01:53:50.811Z,20.47
2018-09-21T01:56:19.082Z,20.77
2018-09-21T01:58:47.379Z,24.40
2018-09-21T02:01:15.647Z,23.30
2018-09-21T02:03:43.899Z,23.77
2018-09-21T02:06:12.182Z,24.17
2018-09-21T02:08:40.454Z,20.17
2018-09-21T02:11:08.786Z,24.23
2018-09-21T02:13:37.078Z,22.73
2018-09-21T02:16:05.367Z,22.53
2018-09-21T02:18:33.680Z,26.10
2018-09-21T02:21:02.059Z,21.80
2018-09-21T02:23:30.369Z,22.63
2018-09-21T02:25:58.645Z,23.97
2018-09-21T02:28:31.028Z,21.63
2018-09-21T02:31:00.073Z,25.20
2018-09-21T02:33:28.909Z,24.23
2018-09-21T02:35:57.164Z,23.27
2018-09-21T02:38:25.522Z,24.30
2018-09-21T02:40:53.782Z,22.00
2018-09-21T02:43:22.098Z,22.77
2018-09-21T02:45:50.340Z,21.67
2018-09-21T02:48:18.603Z,22.70
2018-09-21T02:50:46.885Z,24.73
2018-09-21T02:53:15.157Z,26.60
2018-09-21T02:55:43.463Z,21.47
2018-09-21T02:58:11.779Z,32.70
2018-09-21T03:00:40.549Z,21.30
2018-09-21T03:03:08.903Z,23.30
2018-09-21T03:05:37.196Z,24.50
2018-09-21T03:08:12.822Z,24.03
2018-09-21T03:10:41.064Z,23.00
2018-09-21T03:13:09.445Z,26.03
2018-09-21T03:15:37.667Z,23.07
2018-09-21T03:18:06.027Z,22.97
2018-09-21T03:20:34.319Z,23.97
2018-09-21T03:23:02.579Z,23.83
2018-09-21T03:25:31.648Z,27.13
2018-09-21T03:27:59.904Z,25.53
2018-09-21T03:30:28.164Z,27.53
2018-09-21T03:32:56.449Z,26.57
2018-09-21T03:35:24.830Z,29.23
2018-09-21T03:37:53.176Z,30.03
2018-09-21T03:40:21.426Z,30.17
2018-09-21T03:42:49.840Z,31.97
2018-09-21T03:45:18.160Z,33.77
2018-09-21T03:47:46.451Z,31.40
2018-09-21T03:50:15.726Z,31.20
2018-09-21T03:52:44.876Z,32.37
2018-09-21T03:55:15.155Z,38.43
2018-09-21T03:57:43.444Z,36.47
2018-09-21T04:00:11.694Z,35.80
2018-09-21T04:02:39.945Z,34.37
2018-09-21T04:05:08.248Z,37.50
2018-09-21T04:07:36.500Z,36.83
2018-09-21T04:10:05.546Z,34.80
2018-09-21T04:12:33.778Z,36.10
2018-09-21T04:15:02.020Z,29.20
2018-09-21T04:17:30.303Z,34.93
2018-09-21T04:19:58.577Z,33.87
2018-09-21T04:22:26.883Z,34.07
2018-09-21T04:25:01.524Z,34.27
2018-09-21T04:27:29.932Z,38.03
2018-09-21T04:29:58.229Z,37.13
2018-09-21T04:32:26.509Z,35.83
2018-09-21T04:34:54.832Z,35.63
2018-09-21T04:37:23.070Z,34.97
2018-09-21T04:39:51.393Z,35.93
2018-09-21T04:42:19.659Z,35.70
2018-09-21T04:44:47.959Z,33.70
2018-09-21T04:47:16.221Z,32.13
2018-09-21T04:49:44.969Z,35.87
2018-09-21T04:52:13.293Z,33.70
2018-09-21T04:54:41.541Z,37.10
2018-09-21T04:57:09.851Z,33.87
2018-09-21T04:59:38.092Z,37.53
2018-09-21T05:02:08.448Z,34.03
2018-09-21T05:04:38.088Z,37.30
2018-09-21T05:07:06.566Z,38.07
2018-09-21T05:09:34.824Z,35.27
2018-09-21T05:12:07.089Z,34.33
2018-09-21T05:14:35.348Z,35.87
2018-09-21T05:17:03.647Z,38.43
2018-09-21T05:19:31.917Z,35.47
2018-09-21T05:22:00.245Z,36.13
2018-09-21T05:24:28.495Z,38.87
2018-09-21T05:26:56.736Z,36.47
2018-09-21T05:29:25.078Z,33.17
2018-09-21T05:31:53.350Z,37.47
2018-09-21T05:34:25.906Z,35.23
2018-09-21T05:36:54.288Z,34.27
2018-09-21T05:39:22.554Z,40.83
2018-09-21T05:41:50.809Z,32.17
2018-09-21T05:44:19.048Z,33.97
2018-09-21T05:46:47.333Z,39.13
2018-09-21T05:49:15.599Z,32.63
2018-09-21T05:51:43.892Z,34.70
2018-09-21T05:54:12.154Z,33.50
2018-09-21T05:56:41.183Z,35.97
2018-09-21T05:59:09.498Z,32.13
2018-09-21T06:01:41.815Z,32.43
2018-09-21T06:04:10.168Z,34.80
2018-09-21T06:06:38.491Z,29.70
2018-09-21T06:09:08.235Z,32.50
2018-09-21T06:11:36.617Z,36.77
2018-09-21T06:14:04.947Z,30.77
2018-09-21T06:16:33.200Z,30.53
2018-09-21T06:19:01.460Z,30.10
2018-09-21T06:21:29.820Z,31.50
2018-09-21T06:23:58.096Z,29.27
2018-09-21T06:26:26.364Z,29.33
2018-09-21T06:28:54.721Z,25.67
2018-09-21T06:31:25.016Z,28.27
2018-09-21T06:33:53.271Z,26.67
2018-09-21T06:36:22.181Z,26.67
2018-09-21T06:38:50.516Z,27.10
2018-09-21T06:41:18.887Z,26.93
2018-09-21T06:43:47.244Z,27.10
2018-09-21T06:46:15.448Z,24.37
2018-09-21T06:48:43.744Z,23.93
2018-09-21T06:51:11.939Z,24.43
2018-09-21T06:53:40.211Z,22.97
2018-09-21T06:56:08.430Z,25.70
2018-09-21T06:58:36.664Z,22.93
2018-09-21T07:01:04.937Z,23.80
2018-09-21T07:03:33.163Z,21.23
2018-09-21T07:06:01.526Z,20.43
2018-09-21T07:08:29.759Z,21.13
2018-09-21T07:10:58.015Z,26.47
2018-09-21T07:13:26.257Z,21.97
2018-09-21T07:15:54.488Z,22.10
2018-09-21T07:18:22.812Z,21.10
2018-09-21T07:20:51.026Z,26.00
2018-09-21T07:23:19.331Z,22.93
2018-09-21T07:25:47.535Z,27.03
2018-09-21T07:28:15.798Z,22.93
2018-09-21T07:30:44.012Z,20.63
2018-09-21T07:33:12.223Z,21.70
2018-09-21T07:35:40.518Z,22.60
2018-09-21T07:38:08.724Z,24.23
2018-09-21T07:40:36.987Z,20.73
2018-09-21T07:43:05.272Z,23.27
2018-09-21T07:45:33.496Z,22.60
2018-09-21T07:48:01.827Z,20.93
2018-09-21T07:50:30.058Z,18.17
2018-09-21T07:52:58.260Z,19.53
2018-09-21T07:55:26.516Z,19.13
2018-09-21T07:57:54.712Z,17.80
2018-09-21T08:00:22.984Z,20.57
2018-09-21T08:02:51.224Z,21.93
2018-09-21T08:05:25.672Z,17.63
2018-09-21T08:07:53.879Z,17.67
2018-09-21T08:10:22.190Z,16.80
2018-09-21T08:12:50.455Z,18.33
2018-09-21T08:15:18.650Z,15.47
2018-09-21T08:17:47.090Z,14.70
2018-09-21T08:20:16.074Z,13.03
2018-09-21T08:22:44.441Z,16.63
2018-09-21T08:25:12.739Z,16.70
2018-09-21T08:27:40.953Z,13.30
2018-09-21T08:30:09.237Z,14.57
2018-09-21T08:32:37.557Z,14.27
2018-09-21T08:35:05.876Z,14.90
2018-09-21T08:37:34.310Z,16.33
2018-09-21T08:40:02.612Z,12.47
2018-09-21T08:42:31.069Z,22.27
2018-09-21T08:44:59.862Z,13.47
2018-09-21T08:47:28.252Z,16.57
2018-09-21T08:49:56.631Z,14.37
2018-09-21T08:52:24.872Z,13.53
2018-09-21T08:54:53.183Z,12.60
2018-09-21T08:57:21.386Z,14.53
2018-09-21T08:59:49.725Z,13.93
2018-09-21T09:02:17.930Z,12.13
2018-09-21T09:04:46.193Z,11.70
2018-09-21T09:07:14.485Z,13.83
2018-09-21T09:09:42.791Z,11.63
2018-09-21T09:12:11.058Z,15.87
2018-09-21T09:14:39.344Z,13.47
2018-09-21T09:17:07.624Z,13.43
2018-09-21T09:19:36.007Z,11.57
2018-09-21T09:22:04.267Z,10.67
2018-09-21T09:24:32.549Z,13.43
2018-09-21T09:27:00.815Z,14.63
2018-09-21T09:29:29.164Z,12.17
2018-09-21T09:31:57.495Z,11.27
2018-09-21T09:34:25.752Z,11.27
2018-09-21T09:36:54.082Z,10.77
2018-09-21T09:39:22.312Z,11.47
2018-09-21T09:41:50.557Z,12.20
2018-09-21T09:44:18.839Z,15.27
2018-09-21T09:46:47.119Z,15.13
2018-09-21T09:49:15.377Z,12.80
2018-09-21T09:51:44.160Z,13.73
2018-09-21T09:54:12.448Z,13.10
2018-09-21T09:56:40.691Z,14.67
2018-09-21T09:59:08.901Z,13.30
2018-09-21T10:01:37.107Z,13.97
2018-09-21T10:04:05.315Z,11.80
2018-09-21T10:06:33.562Z,14.07
2018-09-21T10:09:01.786Z,16.70
2018-09-21T10:11:30.159Z,13.97
2018-09-21T10:13:58.362Z,12.37
2018-09-21T10:16:26.664Z,16.73
2018-09-21T10:18:54.891Z,12.50
2018-09-21T10:21:23.079Z,14.37
2018-09-21T10:23:51.275Z,12.37
2018-09-21T10:26:19.465Z,11.40
2018-09-21T10:28:47.969Z,9.70
2018-09-21T10:31:16.129Z,14.07
2018-09-21T10:33:44.442Z,11.77
2018-09-21T10:36:12.516Z,9.90
2018-09-21T10:38:40.735Z,13.97
2018-09-21T10:41:09.076Z,10.57
2018-09-21T10:43:37.464Z,9.83
2018-09-21T10:46:05.691Z,9.67
2018-09-21T10:48:33.887Z,10.53
2018-09-21T10:51:02.095Z,9.53
2018-09-21T10:53:30.302Z,11.43
2018-09-21T10:55:58.544Z,12.40
2018-09-21T10:58:26.884Z,10.47
2018-09-21T11:00:55.071Z,9.53
2018-09-21T11:03:23.358Z,15.15
2018-09-21T11:05:51.578Z,9.65
2018-09-21T11:08:19.859Z,9.98
2018-09-21T11:10:48.063Z,8.68
2018-09-21T11:13:16.424Z,8.80
2018-09-21T11:15:44.602Z,7.60
2018-09-21T11:18:12.837Z,9.18
2018-09-21T11:20:41.079Z,7.08
2018-09-21T11:23:09.271Z,6.85
2018-09-21T11:25:37.469Z,7.85
2018-09-21T11:28:05.667Z,7.85
2018-09-21T11:30:33.947Z,12.23
2018-09-21T11:33:02.738Z,11.12
2018-09-21T11:35:30.997Z,7.80
2018-09-21T11:37:59.215Z,10.03
2018-09-21T11:40:27.515Z,7.28
2018-09-21T11:42:55.747Z,10.40
2018-09-21T11:45:23.971Z,9.30
2018-09-21T11:47:52.232Z,11.90
2018-09-21T11:50:20.430Z,7.92
2018-09-21T11:52:48.667Z,12.82
2018-09-21T11:55:16.855Z,7.42
2018-09-21T11:57:45.086Z,8.33
2018-09-21T12:00:13.325Z,6.72
2018-09-21T12:02:41.744Z,7.00
2018-09-21T12:05:09.967Z,10.58
2018-09-21T12:07:39.299Z,8.83
2018-09-21T12:10:07.542Z,6.60
2018-09-21T12:12:35.948Z,7.25
2018-09-21T12:15:04.367Z,8.68
2018-09-21T12:17:32.603Z,10.88
2018-09-21T12:20:00.800Z,6.62
2018-09-21T12:22:29.052Z,6.80
2018-09-21T12:24:57.275Z,11.05
2018-09-21T12:27:25.466Z,8.40
2018-09-21T12:29:53.805Z,7.37
2018-09-21T12:32:22.005Z,9.85
2018-09-21T12:34:50.304Z,7.55
2018-09-21T12:37:18.519Z,8.13
2018-09-21T12:39:46.724Z,8.65
2018-09-21T12:42:14.923Z,8.40
2018-09-21T12:44:43.211Z,6.60
2018-09-21T12:47:11.452Z,6.72
2018-09-21T12:49:39.651Z,7.60
2018-09-21T12:52:08.018Z,8.80
2018-09-21T12:54:36.516Z,8.55
2018-09-21T12:57:04.796Z,7.55
2018-09-21T12:59:33.289Z,6.80
2018-09-21T13:02:01.672Z,8.38
2018-09-21T13:04:29.923Z,11.48
2018-09-21T13:06:58.119Z,7.45
2018-09-21T13:09:26.315Z,8.05
2018-09-21T13:11:54.513Z,5.97
2018-09-21T13:14:22.980Z,5.70
2018-09-21T13:16:51.215Z,9.10
2018-09-21T13:19:19.415Z,12.28
2018-09-21T13:21:47.655Z,10.40
2018-09-21T13:24:15.863Z,11.90
2018-09-21T13:26:44.133Z,9.55
2018-09-21T13:29:12.613Z,7.75
2018-09-21T13:31:40.835Z,7.67
2018-09-21T13:34:09.091Z,6.50
2018-09-21T13:36:37.295Z,8.83
2018-09-21T13:39:07.352Z,9.67
2018-09-21T13:41:35.583Z,8.80
2018-09-21T13:44:03.779Z,9.10
2018-09-21T13:46:32.031Z,6.87
2018-09-21T13:49:00.297Z,7.53
2018-09-21T13:51:28.576Z,8.20
2018-09-21T13:53:57.304Z,8.43
2018-09-21T13:56:26.085Z,9.10
2018-09-21T13:59:00.952Z,6.93
2018-09-21T14:01:31.285Z,9.80
2018-09-21T14:03:59.625Z,9.27
2018-09-21T14:06:27.900Z,7.87
2018-09-21T14:08:56.174Z,9.00
2018-09-21T14:11:24.528Z,9.83
2018-09-21T14:13:52.912Z,9.80
2018-09-21T14:16:21.173Z,9.87
2018-09-21T14:18:49.420Z,11.10
2018-09-21T14:21:17.815Z,10.67
2018-09-21T14:23:46.045Z,9.70
2018-09-21T14:26:14.277Z,8.90
2018-09-21T14:28:42.535Z,9.33
2018-09-21T14:31:10.799Z,8.87
2018-09-21T14:33:39.076Z,10.83
2018-09-21T14:36:07.403Z,9.80
2018-09-21T14:38:35.700Z,11.03
2018-09-21T14:41:08.037Z,14.93
2018-09-21T14:43:36.304Z,14.23
2018-09-21T14:46:04.499Z,11.47
2018-09-21T14:48:32.696Z,11.47
2018-09-21T14:51:00.939Z,10.27
2018-09-21T14:53:29.219Z,11.50
2018-09-21T14:55:57.423Z,11.60
2018-09-21T14:58:25.747Z,10.17
2018-09-21T15:00:53.947Z,8.97
2018-09-21T15:03:22.183Z,10.50
2018-09-21T15:05:50.417Z,10.03
2018-09-21T15:08:18.751Z,9.77
2018-09-21T15:10:47.106Z,16.83
2018-09-21T15:13:15.325Z,13.43
2018-09-21T15:15:43.531Z,11.80
2018-09-21T15:18:11.859Z,19.10
2018-09-21T15:20:40.046Z,11.87
2018-09-21T15:23:08.261Z,13.90
2018-09-21T15:25:36.459Z,15.23
2018-09-21T15:28:04.760Z,18.07
2018-09-21T15:30:32.971Z,12.80
2018-09-21T15:33:01.215Z,11.37
2018-09-21T15:35:29.415Z,13.07
2018-09-21T15:37:57.631Z,19.60
2018-09-21T15:40:25.911Z,12.20
2018-09-21T15:42:54.180Z,20.07
2018-09-21T15:45:22.431Z,15.13
2018-09-21T15:47:50.638Z,14.03
2018-09-21T15:50:18.895Z,15.97
2018-09-21T15:52:47.169Z,17.13
2018-09-21T15:55:15.461Z,20.20
2018-09-21T15:57:43.785Z,14.30
2018-09-21T16:00:12.029Z,14.33
2018-09-21T16:02:40.299Z,11.23
2018-09-21T16:05:08.552Z,12.80
2018-09-21T16:07:36.763Z,12.23
2018-09-21T16:10:04.999Z,18.43
2018-09-21T16:12:33.203Z,11.73
2018-09-21T16:15:01.413Z,16.30
2018-09-21T16:17:29.660Z,16.57
2018-09-21T16:19:57.904Z,13.17
2018-09-21T16:22:26.094Z,15.00
2018-09-21T16:24:54.455Z,16.77
2018-09-21T16:27:22.671Z,46.53
2018-09-21T16:29:50.914Z,10.03
2018-09-21T16:32:19.115Z,16.17
2018-09-21T16:34:47.493Z,11.53
2018-09-21T16:37:15.723Z,12.97
2018-09-21T16:39:43.911Z,13.10
2018-09-21T16:42:12.228Z,13.63
2018-09-21T16:44:40.512Z,16.70
2018-09-21T16:47:08.700Z,14.00
2018-09-21T16:49:37.047Z,14.33
2018-09-21T16:52:05.303Z,14.73
2018-09-21T16:54:33.531Z,13.07
2018-09-21T16:57:01.899Z,18.57
2018-09-21T16:59:30.079Z,17.57
2018-09-21T17:01:58.328Z,21.50
2018-09-21T17:04:26.594Z,31.07
2018-09-21T17:06:54.859Z,25.40
2018-09-21T17:09:23.055Z,15.97
2018-09-21T17:11:51.357Z,15.13
2018-09-21T17:14:19.584Z,28.73
2018-09-21T17:16:47.783Z,12.13
2018-09-21T17:19:16.193Z,30.23
2018-09-21T17:21:44.432Z,40.63
2018-09-21T17:24:12.627Z,15.50
2018-09-21T17:26:40.975Z,20.50
2018-09-21T17:29:09.171Z,20.20
2018-09-21T17:31:37.555Z,18.53
2018-09-21T17:34:05.809Z,19.17
2018-09-21T17:36:34.032Z,14.07
2018-09-21T17:39:02.284Z,18.83
2018-09-21T17:41:30.498Z,11.80
2018-09-21T17:43:58.687Z,34.33
2018-09-21T17:46:27.028Z,14.73
2018-09-21T17:48:55.255Z,11.40
2018-09-21T17:51:23.546Z,15.50
2018-09-21T17:53:51.743Z,13.33
2018-09-21T17:56:19.934Z,11.30
2018-09-21T17:58:48.216Z,11.83
2018-09-21T18:01:16.416Z,12.13
2018-09-21T18:03:44.619Z,13.23
2018-09-21T18:06:12.801Z,17.93
2018-09-21T18:08:41.823Z,13.80
2018-09-21T18:11:10.046Z,12.47
2018-09-21T18:13:38.247Z,14.60
2018-09-21T18:16:06.534Z,12.13
2018-09-21T18:18:34.783Z,13.43
2018-09-21T18:21:03.261Z,11.60
2018-09-21T18:23:31.751Z,18.13
2018-09-21T18:25:59.995Z,16.67
2018-09-21T18:28:28.225Z,19.07
2018-09-21T18:30:56.446Z,24.10
2018-09-21T18:33:24.675Z,15.37
2018-09-21T18:35:52.943Z,17.23
2018-09-21T18:38:21.161Z,75.03
2018-09-21T18:40:49.358Z,26.50
2018-09-21T18:43:17.567Z,12.73
2018-09-21T18:45:45.804Z,13.13
2018-09-21T19:01:20.604Z,12.93
2018-09-21T19:03:49.006Z,13.97
2018-09-21T19:06:17.309Z,14.90
2018-09-21T19:08:45.611Z,12.63
2018-09-21T19:11:13.852Z,14.90
2018-09-21T19:13:42.072Z,14.23
2018-09-21T19:16:10.332Z,11.80
2018-09-21T19:18:38.581Z,16.07
2018-09-21T19:21:06.964Z,18.00
2018-09-21T19:23:35.168Z,15.33
2018-09-21T19:26:04.186Z,18.83
2018-09-21T19:28:32.448Z,15.87
2018-09-21T19:31:00.687Z,17.47
2018-09-21T19:33:28.917Z,13.77
2018-09-21T19:35:57.130Z,14.80
2018-09-21T19:38:25.335Z,14.37
2018-09-21T19:40:53.610Z,13.10
2018-09-21T19:43:21.936Z,16.20
2018-09-21T19:45:50.236Z,14.77
2018-09-21T19:48:18.536Z,13.70
2018-09-21T19:50:46.744Z,18.73
2018-09-21T19:53:15.000Z,14.17
2018-09-21T19:55:43.223Z,13.33
2018-09-21T19:58:11.566Z,20.07
2018-09-21T20:00:40.198Z,44.23
2018-09-21T20:03:08.611Z,43.07
2018-09-21T20:05:37.059Z,48.77
2018-09-21T20:08:05.458Z,50.70
2018-09-21T20:10:33.700Z,52.37
2018-09-21T20:13:01.932Z,36.83
2018-09-21T20:15:30.176Z,38.65
2018-09-21T20:17:58.467Z,28.13
2018-09-21T20:20:26.719Z,21.77
2018-09-21T20:22:55.096Z,13.17
2018-09-21T20:25:23.490Z,19.97
2018-09-21T20:27:51.710Z,26.63
2018-09-21T20:30:25.418Z,33.13
2018-09-21T20:32:58.899Z,23.43
2018-09-21T20:35:27.246Z,23.67
2018-09-21T20:37:55.495Z,17.87
2018-09-21T20:40:23.731Z,18.27
2018-09-21T20:42:51.989Z,17.53
2018-09-21T20:45:22.269Z,12.23
2018-09-21T20:47:50.591Z,11.10
2018-09-21T20:50:18.854Z,7.93
2018-09-21T20:52:47.087Z,6.07
2018-09-21T20:55:15.339Z,8.43
2018-09-21T20:57:43.588Z,7.20
2018-09-21T21:00:11.933Z,12.00
2018-09-21T21:02:42.208Z,8.77
2018-09-21T21:05:10.536Z,14.03
2018-09-21T21:07:38.803Z,11.87
2018-09-21T21:10:07.079Z,6.10
2018-09-21T21:12:35.344Z,6.17
2018-09-21T21:15:03.627Z,6.20
2018-09-21T21:17:31.907Z,6.43
2018-09-21T21:20:00.148Z,6.03
2018-09-21T21:22:28.447Z,5.10
2018-09-21T21:24:56.881Z,6.93
2018-09-21T21:27:25.144Z,6.23
2018-09-21T21:29:53.371Z,5.47
2018-09-21T21:32:21.607Z,6.57
2018-09-21T21:34:49.866Z,3.97
2018-09-21T21:37:18.196Z,6.27
2018-09-21T21:39:46.434Z,7.33
2018-09-21T21:42:14.719Z,5.83
2018-09-21T21:44:43.007Z,6.20
2018-09-21T21:47:11.234Z,5.37
2018-09-21T21:49:39.512Z,5.93
2018-09-21T21:52:07.752Z,7.10
2018-09-21T21:57:23.982Z,4.60
2018-09-21T21:59:52.316Z,7.57
2018-09-21T22:02:20.551Z,7.10
2018-09-21T22:04:48.804Z,4.47
2018-09-21T22:07:17.049Z,7.97
2018-09-21T22:09:45.296Z,3.73
2018-09-21T22:12:18.798Z,3.40
2018-09-21T22:14:47.324Z,3.97
2018-09-21T22:17:15.591Z,4.90
2018-09-21T22:19:43.916Z,4.53
2018-09-21T22:22:12.313Z,4.67
2018-09-21T22:24:40.567Z,5.37
2018-09-21T22:27:08.810Z,5.60
2018-09-21T22:29:37.046Z,6.07
2018-09-21T22:32:05.309Z,5.00
2018-09-21T22:34:33.619Z,5.63
2018-09-21T22:37:01.860Z,6.30
2018-09-21T22:39:30.096Z,5.87
2018-09-21T22:41:58.351Z,4.27
2018-09-21T22:44:26.584Z,7.00
2018-09-21T22:46:54.928Z,3.57
2018-09-21T22:49:24.141Z,3.60
2018-09-21T22:51:52.425Z,6.83
2018-09-21T22:54:20.687Z,4.73
2018-09-21T22:56:48.939Z,5.47
2018-09-21T22:59:17.255Z,6.37
2018-09-21T23:01:45.595Z,5.83
2018-09-21T23:04:13.812Z,3.53
2018-09-21T23:06:42.043Z,7.57
2018-09-21T23:09:12.052Z,6.27
2018-09-21T23:11:40.945Z,6.40
2018-09-21T23:14:09.528Z,6.70
2018-09-21T23:16:37.854Z,6.10
2018-09-21T23:19:06.092Z,6.90
2018-09-21T23:21:34.435Z,5.40
2018-09-21T23:24:02.729Z,6.53
2018-09-21T23:26:31.142Z,8.20
2018-09-21T23:28:59.392Z,7.50
2018-09-21T23:31:27.651Z,8.00
2018-09-21T23:33:55.876Z,8.40
2018-09-21T23:36:24.155Z,7.27
2018-09-21T23:38:52.423Z,9.63
2018-09-21T23:41:20.641Z,9.83
2018-09-21T23:43:48.856Z,8.00
2018-09-21T23:46:17.224Z,10.07
2018-09-21T23:48:45.507Z,9.70
2018-09-21T23:51:13.723Z,8.93
2018-09-21T23:53:41.961Z,9.60
2018-09-21T23:56:10.198Z,5.23
2018-09-21T23:58:38.720Z,9.17
